createdAt,value
2023-03-13T00:00:27.609Z,99466.97
2023-03-13T00:02:54.115Z,99481.00
2023-03-13T00:05:20.668Z,99480.03
2023-03-13T00:07:47.269Z,99482.75
2023-03-13T00:10:13.804Z,99482.94
2023-03-13T00:12:40.322Z,99487.09
2023-03-13T00:15:07.455Z,99479.63
2023-03-13T00:17:34.025Z,99485.34
2023-03-13T00:20:01.448Z,99475.47
2023-03-13T00:22:28.003Z,99486.22
2023-03-13T00:24:54.507Z,99479.44
2023-03-13T00:27:21.051Z,99493.41
2023-03-13T00:29:47.668Z,99476.66
2023-03-13T00:32:14.226Z,99489.91
2023-03-13T00:34:40.749Z,99488.97
2023-03-13T00:37:07.252Z,99485.47
2023-03-13T00:39:33.814Z,99490.41
2023-03-13T00:42:03.814Z,99481.03
2023-03-13T00:44:30.509Z,99488.38
2023-03-13T00:46:57.049Z,99490.16
2023-03-13T00:49:23.556Z,99484.13
2023-03-13T00:51:50.173Z,99484.06
2023-03-13T00:54:16.683Z,99476.31
2023-03-13T00:56:43.185Z,99471.34
2023-03-13T00:59:09.871Z,99479.59
2023-03-13T01:01:36.753Z,99467.69
2023-03-13T01:04:07.612Z,99462.66
2023-03-13T01:06:36.923Z,99470.81
2023-03-13T01:09:05.742Z,99464.63
2023-03-13T01:11:35.354Z,99467.81
2023-03-13T01:14:04.871Z,99457.84
2023-03-13T01:16:34.246Z,99475.47
2023-03-13T01:19:03.333Z,99479.81
2023-03-13T01:21:30.581Z,99482.44
2023-03-13T01:23:57.308Z,99485.41
2023-03-13T01:26:24.507Z,99489.75
2023-03-13T01:28:51.480Z,99488.38
2023-03-13T01:31:23.756Z,99488.22
2023-03-13T01:33:54.576Z,99493.06
2023-03-13T01:36:21.757Z,99500.41
2023-03-13T01:38:50.175Z,99504.50
2023-03-13T01:41:17.286Z,99509.91
2023-03-13T01:43:44.754Z,99508.72
2023-03-13T01:46:18.537Z,99513.19
2023-03-13T01:49:22.795Z,99517.28
2023-03-13T01:51:55.615Z,99522.97
2023-03-13T01:54:32.617Z,99520.19
2023-03-13T01:57:25.615Z,99522.28
2023-03-13T02:00:22.545Z,99523.53
2023-03-13T02:02:54.683Z,99525.59
2023-03-13T02:05:25.467Z,99529.63
2023-03-13T02:08:01.027Z,99530.28
2023-03-13T02:10:31.173Z,99525.94
2023-03-13T02:13:01.134Z,99535.13
2023-03-13T02:15:29.014Z,99540.91
2023-03-13T02:17:56.293Z,99533.66
2023-03-13T02:20:23.314Z,99533.16
2023-03-13T02:23:20.355Z,99537.31
2023-03-13T02:25:49.521Z,99533.06
2023-03-13T02:28:27.551Z,99525.31
2023-03-13T02:30:56.243Z,99537.22
2023-03-13T02:33:27.721Z,99536.91
2023-03-13T02:35:55.063Z,99538.16
2023-03-13T02:38:25.811Z,99543.25
2023-03-13T02:40:53.865Z,99546.88
2023-03-13T02:43:29.485Z,99547.31
2023-03-13T02:46:06.960Z,99547.69
2023-03-13T02:48:41.192Z,99552.31
2023-03-13T02:51:26.093Z,99547.94
2023-03-13T02:53:55.610Z,99553.41
2023-03-13T02:56:25.802Z,99552.44
2023-03-13T02:58:52.356Z,99556.28
2023-03-13T03:01:18.940Z,99563.59
2023-03-13T03:03:45.605Z,99562.41
2023-03-13T03:06:12.311Z,99573.09
2023-03-13T03:08:41.525Z,99565.91
2023-03-13T03:11:08.294Z,99579.44
2023-03-13T03:13:34.962Z,99583.47
2023-03-13T03:16:11.278Z,99583.25
2023-03-13T03:18:38.587Z,99585.22
2023-03-13T03:21:06.435Z,99592.66
2023-03-13T03:23:34.045Z,99599.66
2023-03-13T03:26:01.379Z,99601.75
2023-03-13T03:28:27.993Z,99617.44
2023-03-13T03:30:54.959Z,99619.19
2023-03-13T03:33:23.115Z,99625.06
2023-03-13T03:35:50.818Z,99633.44
2023-03-13T03:38:17.579Z,99639.03
2023-03-13T03:40:44.109Z,99630.75
2023-03-13T03:43:11.010Z,99633.34
2023-03-13T03:45:37.605Z,99634.00
2023-03-13T03:48:04.363Z,99636.19
2023-03-13T03:50:30.895Z,99642.53
2023-03-13T03:52:57.420Z,99636.88
2023-03-13T03:55:23.966Z,99640.66
2023-03-13T03:57:50.882Z,99638.94
2023-03-13T04:00:19.227Z,99634.47
2023-03-13T04:02:45.790Z,99650.84
2023-03-13T04:05:12.317Z,99650.06
2023-03-13T04:07:38.836Z,99654.22
2023-03-13T04:10:06.086Z,99654.97
2023-03-13T04:12:32.637Z,99662.81
2023-03-13T04:14:59.195Z,99667.19
2023-03-13T04:17:26.161Z,99669.59
2023-03-13T04:19:52.663Z,99664.34
2023-03-13T04:22:19.186Z,99671.09
2023-03-13T04:24:45.742Z,99673.97
2023-03-13T04:27:12.284Z,99674.38
2023-03-13T04:29:38.809Z,99669.25
2023-03-13T04:32:05.565Z,99683.13
2023-03-13T04:34:32.531Z,99686.50
2023-03-13T04:36:59.176Z,99687.56
2023-03-13T04:39:25.780Z,99686.63
2023-03-13T04:41:53.605Z,99676.25
2023-03-13T04:44:21.082Z,99682.47
2023-03-13T04:46:48.016Z,99677.84
2023-03-13T04:49:15.370Z,99684.81
2023-03-13T04:51:42.943Z,99680.03
2023-03-13T04:54:10.500Z,99684.28
2023-03-13T04:56:43.736Z,99682.75
2023-03-13T04:59:15.608Z,99691.47
2023-03-13T05:01:43.395Z,99696.56
2023-03-13T05:04:10.399Z,99699.13
2023-03-13T05:06:36.915Z,99700.72
2023-03-13T05:09:03.717Z,99709.84
2023-03-13T05:11:30.463Z,99705.41
2023-03-13T05:13:57.061Z,99714.44
2023-03-13T05:16:23.623Z,99718.22
2023-03-13T05:18:50.276Z,99708.56
2023-03-13T05:21:17.021Z,99713.00
2023-03-13T05:23:43.547Z,99708.94
2023-03-13T05:26:10.187Z,99717.69
2023-03-13T05:28:36.838Z,99723.09
2023-03-13T05:31:03.509Z,99728.41
2023-03-13T05:33:30.101Z,99733.84
2023-03-13T05:35:56.678Z,99725.06
2023-03-13T05:38:23.317Z,99735.78
2023-03-13T05:40:49.903Z,99739.13
2023-03-13T05:43:16.413Z,99741.13
2023-03-13T05:45:43.225Z,99741.53
2023-03-13T05:48:09.793Z,99739.19
2023-03-13T05:50:36.311Z,99743.63
2023-03-13T05:53:02.891Z,99746.56
2023-03-13T05:55:29.563Z,99745.19
2023-03-13T05:57:56.211Z,99754.88
2023-03-13T06:00:23.001Z,99757.78
2023-03-13T06:02:49.554Z,99758.72
2023-03-13T06:05:16.269Z,99763.38
2023-03-13T06:07:42.934Z,99763.78
2023-03-13T06:10:10.417Z,99766.25
2023-03-13T06:12:36.978Z,99766.19
2023-03-13T06:15:03.849Z,99761.22
2023-03-13T06:17:30.497Z,99761.84
2023-03-13T06:19:57.030Z,99760.91
2023-03-13T06:22:23.613Z,99762.34
2023-03-13T06:24:50.192Z,99764.44
2023-03-13T06:27:17.362Z,99758.78
2023-03-13T06:29:43.926Z,99779.50
2023-03-13T06:32:10.602Z,99777.34
2023-03-13T06:34:37.596Z,99771.69
2023-03-13T06:37:04.266Z,99773.75
2023-03-13T06:39:30.932Z,99766.34
2023-03-13T06:41:57.488Z,99763.84
2023-03-13T06:44:24.136Z,99767.59
2023-03-13T06:46:50.803Z,99761.38
2023-03-13T06:49:17.343Z,99761.09
2023-03-13T06:51:43.872Z,99763.88
2023-03-13T06:54:10.436Z,99761.06
2023-03-13T06:56:36.975Z,99773.66
2023-03-13T06:59:03.509Z,99765.00
2023-03-13T07:01:30.292Z,99766.19
2023-03-13T07:03:56.883Z,99766.69
2023-03-13T07:06:23.624Z,99775.41
2023-03-13T07:08:50.163Z,99782.38
2023-03-13T07:11:16.817Z,99773.53
2023-03-13T07:13:43.394Z,99782.28
2023-03-13T07:16:12.590Z,99778.59
2023-03-13T07:18:41.918Z,99772.09
2023-03-13T07:21:10.261Z,99777.16
2023-03-13T07:23:36.996Z,99775.75
2023-03-13T07:26:15.059Z,99779.53
2023-03-13T07:28:41.944Z,99777.31
2023-03-13T07:31:12.956Z,99777.53
2023-03-13T07:33:40.041Z,99770.31
2023-03-13T07:36:07.145Z,99773.25
2023-03-13T07:38:34.225Z,99770.16
2023-03-13T07:41:01.257Z,99769.56
2023-03-13T07:43:29.438Z,99768.38
2023-03-13T07:45:58.775Z,99768.09
2023-03-13T07:48:32.675Z,99779.41
2023-03-13T07:51:00.232Z,99772.91
2023-03-13T07:53:27.999Z,99773.75
2023-03-13T07:56:03.567Z,99770.59
2023-03-13T07:58:32.841Z,99780.28
2023-03-13T08:00:59.742Z,99776.97
2023-03-13T08:03:26.792Z,99776.97
2023-03-13T08:06:07.048Z,99797.03
2023-03-13T08:08:33.887Z,99788.69
2023-03-13T08:11:13.866Z,99793.19
2023-03-13T08:13:41.453Z,99790.28
2023-03-13T08:16:09.627Z,99790.53
2023-03-13T08:18:38.004Z,99787.47
2023-03-13T08:21:12.857Z,99785.31
2023-03-13T08:23:39.387Z,99781.34
2023-03-13T08:26:05.897Z,99781.59
2023-03-13T08:28:32.676Z,99788.22
2023-03-13T08:30:59.245Z,99787.34
2023-03-13T08:33:25.893Z,99792.56
2023-03-13T08:35:52.507Z,99793.56
2023-03-13T08:38:19.123Z,99793.28
2023-03-13T08:40:45.714Z,99788.34
2023-03-13T08:43:12.342Z,99786.94
2023-03-13T08:45:38.848Z,99783.72
2023-03-13T08:48:05.502Z,99796.44
2023-03-13T08:50:32.057Z,99779.44
2023-03-13T08:52:58.602Z,99782.22
2023-03-13T08:55:26.568Z,99787.94
2023-03-13T08:57:53.178Z,99784.53
2023-03-13T09:00:20.067Z,99795.03
2023-03-13T09:02:46.707Z,99783.91
2023-03-13T09:05:13.339Z,99782.50
2023-03-13T09:07:39.984Z,99787.94
2023-03-13T09:10:07.099Z,99773.56
2023-03-13T09:12:33.691Z,99767.19
2023-03-13T09:15:00.281Z,99771.72
2023-03-13T09:17:26.795Z,99767.13
2023-03-13T09:20:00.012Z,99769.97
2023-03-13T09:22:27.604Z,99765.22
2023-03-13T09:24:54.134Z,99776.53
2023-03-13T09:27:20.700Z,99768.25
2023-03-13T09:29:47.211Z,99762.56
2023-03-13T09:32:13.785Z,99761.88
2023-03-13T09:34:40.418Z,99764.56
2023-03-13T09:37:07.100Z,99758.50
2023-03-13T09:39:33.658Z,99760.66
2023-03-13T09:42:02.908Z,99754.31
2023-03-13T09:44:37.169Z,99755.22
2023-03-13T09:47:12.648Z,99745.91
2023-03-13T09:50:03.374Z,99748.06
2023-03-13T09:52:43.882Z,99743.38
2023-03-13T09:55:22.892Z,99742.84
2023-03-13T09:58:02.334Z,99722.91
2023-03-13T10:00:48.265Z,99732.84
2023-03-13T10:03:22.989Z,99742.28
2023-03-13T10:05:57.195Z,99743.44
2023-03-13T10:08:30.226Z,99726.13
2023-03-13T10:11:15.557Z,99734.28
2023-03-13T10:14:11.944Z,99718.78
2023-03-13T10:16:44.860Z,99739.28
2023-03-13T10:19:17.335Z,99731.53
2023-03-13T10:21:47.925Z,99716.28
2023-03-13T10:24:36.758Z,99728.38
2023-03-13T10:27:03.447Z,99707.09
2023-03-13T10:29:31.742Z,99701.75
2023-03-13T10:32:01.172Z,99689.94
2023-03-13T10:34:30.457Z,99692.50
2023-03-13T10:37:00.485Z,99683.69
2023-03-13T10:39:29.849Z,99673.94
2023-03-13T10:42:19.266Z,99669.09
2023-03-13T10:44:45.879Z,99670.13
2023-03-13T10:47:16.005Z,99669.47
2023-03-13T10:49:51.331Z,99679.75
2023-03-13T10:52:44.009Z,99660.56
2023-03-13T10:55:19.287Z,99667.03
2023-03-13T10:58:04.688Z,99665.78
2023-03-13T11:00:41.263Z,99664.88
2023-03-13T11:03:19.805Z,99673.22
2023-03-13T11:05:58.607Z,99662.84
2023-03-13T11:08:34.870Z,99681.69
2023-03-13T11:11:04.218Z,99657.06
2023-03-13T11:13:39.402Z,99649.38
2023-03-13T11:16:27.933Z,99641.44
2023-03-13T11:19:11.820Z,99642.97
2023-03-13T11:21:44.234Z,99642.41
2023-03-13T11:24:22.693Z,99644.28
2023-03-13T11:27:31.118Z,99616.69
2023-03-13T11:30:25.373Z,99621.34
2023-03-13T11:33:05.548Z,99602.34
2023-03-13T11:35:50.494Z,99610.31
2023-03-13T11:38:32.978Z,99616.19
2023-03-13T11:41:29.653Z,99611.47
2023-03-13T11:44:10.760Z,99608.28
2023-03-13T11:46:55.866Z,99606.84
2023-03-13T11:49:40.833Z,99593.63
2023-03-13T11:52:13.418Z,99597.75
2023-03-13T11:55:18.472Z,99582.06
2023-03-13T11:58:12.128Z,99583.31
2023-03-13T12:00:48.017Z,99594.19
2023-03-13T12:03:14.455Z,99577.69
2023-03-13T12:05:51.878Z,99593.34
2023-03-13T12:08:25.640Z,99580.34
2023-03-13T12:11:22.291Z,99588.41
2023-03-13T12:14:00.421Z,99586.47
2023-03-13T12:16:40.740Z,99570.09
2023-03-13T12:19:11.957Z,99572.25
2023-03-13T12:21:53.489Z,99575.09
2023-03-13T12:24:29.946Z,99573.50
2023-03-13T12:27:08.574Z,99570.47
2023-03-13T12:29:43.989Z,99569.00
2023-03-13T12:32:37.160Z,99565.25
2023-03-13T12:35:12.887Z,99578.03
2023-03-13T12:37:44.243Z,99584.22
2023-03-13T12:40:23.064Z,99580.09
2023-03-13T12:42:55.667Z,99578.50
2023-03-13T12:45:26.119Z,99574.47
2023-03-13T12:48:08.346Z,99578.66
2023-03-13T12:50:59.320Z,99579.41
2023-03-13T12:53:28.682Z,99572.38
2023-03-13T12:56:07.363Z,99560.44
2023-03-13T12:58:55.652Z,99565.56
2023-03-13T13:01:46.924Z,99573.00
2023-03-13T13:04:24.239Z,99567.44
2023-03-13T13:07:02.160Z,99563.50
2023-03-13T13:09:33.229Z,99556.97
2023-03-13T13:12:19.924Z,99560.41
2023-03-13T13:14:49.171Z,99560.31
2023-03-13T13:17:40.691Z,99555.50
2023-03-13T13:20:30.444Z,99545.25
2023-03-13T13:23:16.155Z,99540.75
2023-03-13T13:25:42.709Z,99529.06
2023-03-13T13:28:21.952Z,99531.13
2023-03-13T13:30:50.110Z,99527.13
2023-03-13T13:33:35.959Z,99525.88
2023-03-13T13:36:23.545Z,99527.13
2023-03-13T13:38:57.266Z,99525.22
2023-03-13T13:41:28.197Z,99530.97
2023-03-13T13:44:21.819Z,99530.72
2023-03-13T13:46:48.797Z,99527.97
2023-03-13T13:49:19.224Z,99529.34
2023-03-13T13:52:06.064Z,99525.56
2023-03-13T15:14:32.501Z,99451.22
2023-03-13T15:16:59.042Z,99463.22
2023-03-13T15:19:25.564Z,99458.19
2023-03-13T15:21:52.596Z,99453.13
2023-03-13T15:24:19.108Z,99455.63
2023-03-13T15:26:47.848Z,99457.34
2023-03-13T15:29:18.220Z,99455.63
2023-03-13T15:31:44.957Z,99458.13
2023-03-13T15:34:14.049Z,99465.78
2023-03-13T15:36:42.481Z,99464.91
2023-03-13T15:39:22.929Z,99457.16
2023-03-13T15:41:49.448Z,99458.78
2023-03-13T15:44:16.037Z,99457.81
2023-03-13T15:46:42.888Z,99451.84
2023-03-13T15:49:12.955Z,99449.28
2023-03-13T15:51:39.580Z,99450.03
2023-03-13T15:54:06.184Z,99465.28
2023-03-13T15:56:36.398Z,99459.34
2023-03-13T15:59:09.962Z,99454.16
2023-03-13T16:01:36.541Z,99460.97
2023-03-13T16:04:03.630Z,99450.69
2023-03-13T16:06:33.047Z,99453.97
2023-03-13T16:09:01.338Z,99444.56
2023-03-13T16:11:28.959Z,99435.22
2023-03-13T16:13:56.867Z,99442.81
2023-03-13T16:16:36.477Z,99441.13
2023-03-13T16:19:04.451Z,99435.09
2023-03-13T16:21:34.470Z,99432.41
2023-03-13T16:24:01.055Z,99440.00
2023-03-13T16:26:30.277Z,99438.28
2023-03-13T16:28:57.756Z,99437.44
2023-03-13T16:31:30.068Z,99432.25
2023-03-13T16:33:58.627Z,99428.78
2023-03-13T16:36:30.126Z,99421.97
2023-03-13T16:39:01.839Z,99422.66
2023-03-13T16:41:29.391Z,99415.72
2023-03-13T16:43:56.401Z,99415.44
2023-03-13T16:46:32.712Z,99415.91
2023-03-13T16:48:59.808Z,99410.56
2023-03-13T16:51:28.667Z,99417.28
2023-03-13T16:53:56.712Z,99425.50
2023-03-13T16:56:35.571Z,99427.03
2023-03-13T16:59:05.957Z,99426.84
2023-03-13T17:01:33.555Z,99424.13
2023-03-13T17:04:00.291Z,99419.75
2023-03-13T17:06:36.047Z,99420.59
2023-03-13T17:09:03.585Z,99418.03
2023-03-13T17:11:30.194Z,99425.53
2023-03-13T17:13:56.782Z,99424.63
2023-03-13T17:16:29.424Z,99418.59
2023-03-13T17:18:56.556Z,99416.00
2023-03-13T17:21:24.888Z,99422.75
2023-03-13T17:23:52.142Z,99426.06
2023-03-13T17:26:18.648Z,99416.63
2023-03-13T17:28:46.954Z,99414.91
2023-03-13T17:31:13.864Z,99426.63
2023-03-13T17:33:40.895Z,99416.34
2023-03-13T17:36:27.980Z,99420.53
2023-03-13T17:38:57.349Z,99412.94
2023-03-13T17:41:26.788Z,99408.03
2023-03-13T17:43:54.120Z,99409.78
2023-03-13T17:46:30.256Z,99409.78
2023-03-13T17:48:56.772Z,99413.09
2023-03-13T17:51:28.995Z,99405.38
2023-03-13T17:53:57.958Z,99401.22
2023-03-13T17:56:26.850Z,99413.97
2023-03-13T17:58:58.071Z,99408.03
2023-03-13T18:01:30.646Z,99402.03
2023-03-13T18:03:57.614Z,99407.91
2023-03-13T18:06:25.313Z,99406.13
2023-03-13T18:08:53.911Z,99406.84
2023-03-13T18:11:21.614Z,99405.84
2023-03-13T18:13:48.753Z,99400.53
2023-03-13T18:16:26.308Z,99398.81
2023-03-13T18:18:54.157Z,99397.06
2023-03-13T18:21:22.622Z,99396.94
2023-03-13T18:23:49.569Z,99392.75
2023-03-13T18:26:38.119Z,99384.13
2023-03-13T18:29:13.376Z,99383.97
2023-03-13T18:31:42.547Z,99377.91
2023-03-13T18:34:10.706Z,99383.78
2023-03-13T18:36:38.505Z,99383.72
2023-03-13T18:39:06.210Z,99374.31
2023-03-13T18:41:33.524Z,99372.59
2023-03-13T18:44:03.409Z,99375.16
2023-03-13T18:46:32.029Z,99368.25
2023-03-13T18:49:00.330Z,99378.34
2023-03-13T18:51:28.140Z,99378.34
2023-03-13T18:53:55.262Z,99372.47
2023-03-13T18:56:23.158Z,99371.72
2023-03-13T18:58:51.905Z,99375.94
2023-03-13T19:01:22.028Z,99370.06
2023-03-13T19:03:49.099Z,99365.78
2023-03-13T19:06:15.581Z,99372.59
2023-03-13T19:08:42.088Z,99375.81
2023-03-13T19:11:13.439Z,99368.88
2023-03-13T19:13:39.981Z,99372.22
2023-03-13T19:16:14.349Z,99370.47
2023-03-13T19:18:41.226Z,99372.91
2023-03-13T19:21:16.476Z,99370.25
2023-03-13T19:23:43.466Z,99369.19
2023-03-13T19:26:15.962Z,99368.06
2023-03-13T19:28:42.622Z,99366.34
2023-03-13T19:31:11.323Z,99360.41
2023-03-13T19:33:37.847Z,99351.88
2023-03-13T19:36:10.817Z,99356.06
2023-03-13T19:38:39.834Z,99358.47
2023-03-13T19:41:09.847Z,99356.75
2023-03-13T19:43:37.660Z,99359.19
2023-03-13T19:46:23.115Z,99360.13
2023-03-13T19:48:53.790Z,99367.75
2023-03-13T19:51:20.995Z,99354.06
2023-03-13T19:53:47.997Z,99354.06
2023-03-13T19:56:17.260Z,99354.81
2023-03-13T19:58:45.859Z,99349.63
2023-03-13T20:01:17.469Z,99357.13
2023-03-13T20:03:45.893Z,99342.72
2023-03-13T20:06:17.409Z,99352.72
2023-03-13T20:08:44.425Z,99355.94
2023-03-13T20:11:11.514Z,99349.13
2023-03-13T20:13:38.745Z,99352.44
2023-03-13T20:16:05.640Z,99347.28
2023-03-13T20:18:32.870Z,99347.91
2023-03-13T20:20:59.832Z,99343.63
2023-03-13T20:23:26.352Z,99352.84
2023-03-13T20:25:53.036Z,99346.84
2023-03-13T20:28:19.605Z,99349.31
2023-03-13T20:30:48.400Z,99345.78
2023-03-13T20:33:15.668Z,99342.47
2023-03-13T20:35:42.475Z,99335.63
2023-03-13T20:38:09.171Z,99333.09
2023-03-13T20:40:35.952Z,99333.06
2023-03-13T20:43:02.753Z,99336.41
2023-03-13T20:45:30.396Z,99331.31
2023-03-13T20:47:57.403Z,99333.91
2023-03-13T20:50:24.097Z,99334.84
2023-03-13T20:52:50.992Z,99338.44
2023-03-13T20:55:17.682Z,99328.56
2023-03-13T20:57:44.256Z,99326.94
2023-03-13T21:00:12.390Z,99328.66
2023-03-13T21:02:38.976Z,99330.50
2023-03-13T21:05:05.906Z,99329.72
2023-03-13T21:07:32.415Z,99332.25
2023-03-13T21:09:58.994Z,99339.06
2023-03-13T21:12:25.518Z,99333.84
2023-03-13T21:14:54.862Z,99332.94
2023-03-13T21:17:21.592Z,99336.25
2023-03-13T21:19:48.124Z,99335.25
2023-03-13T21:22:14.713Z,99332.69
2023-03-13T21:24:41.467Z,99329.19
2023-03-13T21:27:07.998Z,99329.16
2023-03-13T21:29:34.665Z,99324.13
2023-03-13T21:32:01.286Z,99324.25
2023-03-13T21:34:27.987Z,99332.81
2023-03-13T21:36:54.528Z,99333.69
2023-03-13T21:39:21.487Z,99333.81
2023-03-13T21:41:48.083Z,99334.66
2023-03-13T21:44:19.540Z,99334.03
2023-03-13T21:46:48.519Z,99334.97
2023-03-13T21:49:15.164Z,99333.44
2023-03-13T21:51:41.776Z,99335.97
2023-03-13T21:54:08.322Z,99337.69
2023-03-13T21:56:34.854Z,99337.72
2023-03-13T21:59:01.449Z,99343.78
2023-03-13T22:01:28.085Z,99345.56
2023-03-13T22:03:54.673Z,99335.41
2023-03-13T22:06:22.598Z,99336.25
2023-03-13T22:08:49.725Z,99337.13
2023-03-13T22:11:16.643Z,99330.31
2023-03-13T22:13:43.311Z,99343.00
2023-03-13T22:16:12.960Z,99326.03
2023-03-13T22:18:41.824Z,99318.34
2023-03-13T22:21:08.512Z,99330.19
2023-03-13T22:23:35.088Z,99322.50
2023-03-13T22:26:01.666Z,99317.38
2023-03-13T22:28:28.292Z,99323.19
2023-03-13T22:30:54.916Z,99313.00
2023-03-13T22:33:21.491Z,99302.84
2023-03-13T22:35:52.371Z,99306.28
2023-03-13T22:38:20.438Z,99293.59
2023-03-13T22:40:48.438Z,99300.50
2023-03-13T22:43:15.015Z,99292.00
2023-03-13T22:45:41.651Z,99298.81
2023-03-13T22:48:08.214Z,99292.13
2023-03-13T22:50:35.834Z,99290.41
2023-03-13T22:53:03.015Z,99281.88
2023-03-13T22:55:29.568Z,99287.88
2023-03-13T22:57:56.183Z,99287.75
2023-03-13T23:00:22.950Z,99288.66
2023-03-13T23:02:49.675Z,99283.59
2023-03-13T23:05:16.540Z,99287.75
2023-03-13T23:07:44.575Z,99274.25
2023-03-13T23:10:12.626Z,99264.84
2023-03-13T23:12:39.640Z,99265.69
2023-03-13T23:15:07.013Z,99264.09
2023-03-13T23:17:34.977Z,99264.06
2023-03-13T23:20:02.005Z,99264.84
2023-03-13T23:22:32.792Z,99265.81
2023-03-13T23:24:59.408Z,99258.16
2023-03-13T23:27:27.128Z,99259.03
2023-03-13T23:29:54.245Z,99270.91
2023-03-13T23:32:20.782Z,99265.81
2023-03-13T23:34:47.328Z,99266.75
2023-03-13T23:37:13.905Z,99260.81
2023-03-13T23:39:40.461Z,99265.94
2023-03-13T23:42:07.465Z,99266.06
2023-03-13T23:44:36.164Z,99262.69
2023-03-13T23:47:02.739Z,99255.91
2023-03-13T23:49:29.255Z,99260.19
2023-03-13T23:51:55.915Z,99257.66
2023-03-13T23:54:23.120Z,99253.44
2023-03-13T23:56:49.646Z,99247.50
2023-03-13T23:59:16.450Z,99233.94
